Time;durP1;ratioP1;P1;durP2;ratioP2;P2;SDS_P1;SDS_P2;PMS_P1;PMS_P2;Temp;Humidity;BMP_temperature;BMP_pressure;BME280_temperature;BME280_humidity;BME280_pressure;Samples;Min_cycle;Max_cycle;Signal;HPM_P1;HPM_P2
2021/12/05 00:18:48;;;;;;;44.13;29.40;;;;;;;6.30;92.21;94252.03;5031552;28;20529;-77
2021/12/05 00:24:00;;;;;;;49.10;29.67;;;;;;;6.32;91.76;94244.91;5031097;28;20442;-77
2021/12/05 00:26:27;;;;;;;60.30;32.63;;;;;;;6.31;91.95;94250.25;5031012;28;20446;-78
2021/12/05 00:29:11;;;;;;;50.40;29.43;;;;;;;6.30;92.40;94236.38;4998691;28;20446;-78
2021/12/05 00:31:59;;;;;;;66.40;35.33;;;;;;;6.30;92.27;94244.22;5031051;28;20895;-78
2021/12/05 00:48:42;;;;;;;44.70;28.70;;;;;;;6.24;93.78;94233.44;4914375;29;20456;-78
2021/12/05 00:57:09;;;;;;;47.23;29.50;;;;;;;6.22;93.65;94228.34;4869691;29;20465;-78
2021/12/05 00:59:54;;;;;;;42.73;27.57;;;;;;;6.20;93.68;94225.88;4895230;29;20484;-78
2021/12/05 01:02:45;;;;;;;42.57;26.33;;;;;;;6.20;93.13;94223.28;4895344;29;20528;-78
2021/12/05 01:13:43;;;;;;;43.23;25.20;;;;;;;6.06;91.94;94205.28;4876488;29;20673;-78
2021/12/05 01:16:16;;;;;;;41.70;25.70;;;;;;;6.04;92.09;94204.56;4876778;29;20451;-78
2021/12/05 01:18:44;;;;;;;42.30;25.20;;;;;;;6.03;91.55;94202.09;4881997;29;20489;-77
2021/12/05 01:21:14;;;;;;;41.33;23.30;;;;;;;6.02;92.52;94205.63;4933420;29;20455;-77
2021/12/05 01:23:52;;;;;;;36.93;24.60;;;;;;;6.01;91.55;94204.81;4933820;28;20451;-78
2021/12/05 01:26:23;;;;;;;41.87;25.13;;;;;;;5.96;92.28;94191.31;4971837;28;20885;-78
2021/12/05 01:29:22;;;;;;;45.33;23.30;;;;;;;5.95;91.46;94200.09;4971246;28;20441;-78
2021/12/05 01:31:59;;;;;;;41.20;22.33;;;;;;;5.85;91.77;94196.53;5004434;28;20451;-78
2021/12/05 01:34:42;;;;;;;34.03;19.77;;;;;;;5.79;92.49;94199.59;5010369;28;20449;-78
2021/12/05 01:37:19;;;;;;;38.60;21.27;;;;;;;5.78;91.95;94193.56;5009885;28;20454;-78
2021/12/05 01:40:02;;;;;;;38.87;22.80;;;;;;;5.77;92.86;94183.25;5010203;28;20576;-77
2021/12/05 01:56:45;;;;;;;35.80;22.40;;;;;;;5.76;93.47;94160.75;5071881;28;20443;-78
2021/12/05 01:59:32;;;;;;;40.17;23.83;;;;;;;5.74;94.77;94157.47;5071824;28;20848;-78
2021/12/05 02:07:58;;;;;;;39.73;21.57;;;;;;;5.78;95.51;94172.75;5029858;28;20457;-77
2021/12/05 02:16:17;;;;;;;43.13;23.83;;;;;;;5.91;95.61;94177.84;5029743;28;20809;-78
2021/12/05 02:30:04;;;;;;;36.13;21.80;;;;;;;5.99;94.92;94209.31;5029431;28;20492;-78
2021/12/05 02:35:24;;;;;;;38.50;20.63;;;;;;;5.97;94.17;94223.41;5029641;28;20998;-78
2021/12/05 02:38:12;;;;;;;35.87;20.47;;;;;;;5.98;94.44;94212.88;5029463;28;20907;-78
2021/12/05 02:43:31;;;;;;;32.33;19.67;;;;;;;5.95;94.71;94205.28;4990039;28;20427;-78
2021/12/05 02:46:03;;;;;;;30.60;20.83;;;;;;;5.94;94.47;94203.63;4990240;28;20483;-78
2021/12/05 02:48:32;;;;;;;38.07;20.90;;;;;;;5.89;95.43;94198.78;4992606;28;20455;-78
2021/12/05 02:51:01;;;;;;;35.00;21.30;;;;;;;5.93;95.40;94204.59;4993985;28;20443;-78
2021/12/05 02:53:36;;;;;;;34.03;22.90;;;;;;;5.92;95.38;94202.94;4993686;28;20486;-78
2021/12/05 02:56:05;;;;;;;37.60;20.57;;;;;;;5.98;95.26;94193.81;4993809;28;20443;-78
2021/12/05 02:58:40;;;;;;;37.73;21.60;;;;;;;6.01;95.71;94193.56;4993429;28;20527;-78
2021/12/05 03:01:16;;;;;;;40.13;21.60;;;;;;;6.03;95.70;94195.09;4993463;28;20450;-78
2021/12/05 03:03:43;;;;;;;41.47;23.10;;;;;;;6.03;96.55;94194.28;4993754;28;20837;-78
2021/12/05 03:06:16;;;;;;;39.50;23.47;;;;;;;6.08;96.34;94185.19;4993381;28;20850;-78
2021/12/05 03:08:45;;;;;;;37.07;20.83;;;;;;;6.12;97.32;94183.16;4993257;28;20982;-78
2021/12/05 03:11:12;;;;;;;43.23;23.10;;;;;;;6.19;96.88;94186.94;4993504;28;20456;-78
2021/12/05 03:13:41;;;;;;;38.13;22.17;;;;;;;6.24;96.56;94194.38;4993400;28;20436;-78
2021/12/05 03:16:09;;;;;;;35.30;21.80;;;;;;;6.26;96.89;94182.88;4993247;28;20453;-78
2021/12/05 03:18:37;;;;;;;37.03;19.67;;;;;;;6.30;96.53;94188.66;4960386;28;20482;-78
2021/12/05 03:21:07;;;;;;;40.27;22.87;;;;;;;6.26;97.08;94188.09;5053236;28;20459;-77
2021/12/05 03:23:35;;;;;;;34.00;19.70;;;;;;;6.29;97.11;94189.63;5074922;28;20918;-78
2021/12/05 03:26:04;;;;;;;33.60;20.70;;;;;;;6.32;96.87;94192.81;5074529;28;20467;-78
2021/12/05 03:28:31;;;;;;;38.00;21.67;;;;;;;6.33;97.52;94193.63;5074702;28;20797;-78
2021/12/05 03:30:58;;;;;;;42.93;19.67;;;;;;;6.33;97.44;94186.66;5074740;28;20482;-78
2021/12/05 03:33:25;;;;;;;34.43;20.90;;;;;;;6.33;98.09;94185.81;5074459;28;20440;-78
2021/12/05 03:35:52;;;;;;;37.33;20.93;;;;;;;6.35;96.90;94186.53;5074514;28;20452;-78
2021/12/05 03:38:19;;;;;;;34.47;19.20;;;;;;;6.36;96.97;94194.25;5074658;28;20464;-78
2021/12/05 03:40:46;;;;;;;29.47;18.90;;;;;;;6.38;97.23;94192.34;5074698;28;20451;-78
2021/12/05 03:43:17;;;;;;;29.00;19.33;;;;;;;6.38;96.89;94192.34;5074412;28;20798;-78
2021/12/05 03:45:46;;;;;;;32.40;19.00;;;;;;;6.41;97.06;94180.84;5074604;28;20463;-78
2021/12/05 03:48:15;;;;;;;41.97;23.13;;;;;;;6.37;96.74;94174.22;5074357;28;20444;-78
2021/12/05 03:50:44;;;;;;;34.90;19.63;;;;;;;6.39;96.83;94172.31;5074456;28;20444;-78
2021/12/05 03:53:12;;;;;;;33.77;20.07;;;;;;;6.40;96.81;94166.16;5039137;28;20928;-78
2021/12/05 03:55:42;;;;;;;33.80;19.70;;;;;;;6.39;96.76;94170.56;5074239;28;20447;-78
2021/12/05 03:58:09;;;;;;;31.93;20.20;;;;;;;6.40;97.19;94176.59;5038141;28;20440;-78
2021/12/05 04:00:41;;;;;;;34.83;22.00;;;;;;;6.45;97.64;94177.03;5073892;28;20480;-78
2021/12/05 04:03:12;;;;;;;38.13;22.37;;;;;;;6.45;97.64;94180.47;5055330;28;20444;-78
2021/12/05 04:05:39;;;;;;;33.60;21.53;;;;;;;6.49;97.18;94181.06;5073592;28;20485;-78
2021/12/05 04:08:10;;;;;;;40.03;23.50;;;;;;;6.54;97.54;94181.50;5074167;28;20991;-78
2021/12/05 04:10:38;;;;;;;37.93;20.73;;;;;;;6.56;97.79;94192.63;5073880;28;20791;-78
2021/12/05 04:13:06;;;;;;;38.43;21.50;;;;;;;6.59;97.28;94189.78;5073570;28;20775;-78
2021/12/05 04:15:33;;;;;;;45.00;25.93;;;;;;;6.63;97.30;94172.94;5073514;28;20445;-78
2021/12/05 04:18:02;;;;;;;40.57;24.17;;;;;;;6.65;96.99;94189.31;5073911;28;20441;-78
2021/12/05 04:20:29;;;;;;;41.70;25.47;;;;;;;6.68;96.88;94185.63;5038201;28;20503;-78
2021/12/05 04:22:57;;;;;;;34.70;22.23;;;;;;;6.72;96.87;94190.47;5073616;28;20436;-78
2021/12/05 04:25:24;;;;;;;35.10;22.30;;;;;;;6.73;97.33;94194.72;5073594;28;20935;-78
2021/12/05 04:27:53;;;;;;;37.67;23.23;;;;;;;6.75;97.27;94174.56;5073841;28;20445;-78
2021/12/05 04:30:22;;;;;;;39.83;20.80;;;;;;;6.78;97.18;94181.31;5073878;28;20451;-78
2021/12/05 04:32:50;;;;;;;36.70;22.00;;;;;;;6.80;96.12;94197.66;5073575;28;20454;-78
2021/12/05 04:35:18;;;;;;;37.33;21.90;;;;;;;6.82;96.33;94201.78;5073484;28;20448;-78
2021/12/05 04:37:46;;;;;;;38.63;22.40;;;;;;;6.82;96.14;94204.41;5054345;28;20469;-78
2021/12/05 04:40:14;;;;;;;39.33;22.90;;;;;;;6.81;96.30;94205.34;5073021;28;20922;-78
2021/12/05 04:42:41;;;;;;;33.77;21.90;;;;;;;6.82;96.42;94204.41;5073295;28;20950;-78
2021/12/05 04:45:14;;;;;;;42.83;25.47;;;;;;;6.80;96.36;94192.44;5073390;28;20452;-78
2021/12/05 04:47:43;;;;;;;46.03;26.30;;;;;;;6.73;96.59;94202.53;5072844;28;20447;-78
2021/12/05 04:50:10;;;;;;;30.43;20.60;;;;;;;6.67;96.81;94203.03;5073105;28;20993;-78
2021/12/05 04:52:39;;;;;;;39.00;23.03;;;;;;;6.68;97.72;94212.53;5073017;28;20452;-78
2021/12/05 04:55:07;;;;;;;42.20;25.03;;;;;;;6.68;98.45;94211.69;5072911;28;20918;-78
2021/12/05 04:57:34;;;;;;;38.07;23.70;;;;;;;6.71;97.87;94220.09;5072895;28;20448;-78
2021/12/05 05:00:01;;;;;;;43.57;25.70;;;;;;;6.74;97.62;94206.81;5072708;28;20480;-78
2021/12/05 05:02:28;;;;;;;38.40;22.13;;;;;;;6.77;97.78;94206.56;5072945;28;20806;-78
2021/12/05 05:04:55;;;;;;;38.40;22.57;;;;;;;6.76;96.74;94211.91;5072930;28;20830;-78
2021/12/05 05:07:26;;;;;;;38.63;24.83;;;;;;;6.68;97.16;94225.56;5072561;28;20440;-78
2021/12/05 05:09:57;;;;;;;40.30;24.80;;;;;;;6.68;96.51;94235.97;5072367;28;20441;-78
2021/12/05 05:12:24;;;;;;;47.03;26.10;;;;;;;6.61;96.86;94241.78;5072887;28;20452;-78
2021/12/05 05:14:53;;;;;;;45.83;26.60;;;;;;;6.51;96.13;94255.56;5037086;28;20441;-78
2021/12/05 05:17:20;;;;;;;40.67;25.83;;;;;;;6.40;96.72;94245.16;5073059;28;20452;-78
2021/12/05 05:19:50;;;;;;;43.67;23.23;;;;;;;6.40;96.98;94241.72;5072308;28;20990;-78
2021/12/05 05:22:28;;;;;;;38.50;24.57;;;;;;;6.42;97.60;94247.66;5072662;28;20441;-78
2021/12/05 05:46:56;;;;;;;55.93;29.50;;;;;;;6.00;100.00;94239.63;4894696;29;20588;-78
2021/12/05 05:49:31;;;;;;;52.50;27.83;;;;;;;5.99;99.91;94239.72;4894847;29;20460;-78
2021/12/05 05:51:58;;;;;;;56.37;28.80;;;;;;;6.03;99.92;94239.38;4894862;29;20500;-78
2021/12/05 05:54:25;;;;;;;54.33;29.93;;;;;;;6.13;99.66;94236.91;4894793;29;20532;-78
2021/12/05 05:56:59;;;;;;;61.00;33.00;;;;;;;6.18;98.47;94232.97;4847891;29;20448;-78
2021/12/05 05:59:30;;;;;;;72.23;35.63;;;;;;;6.21;98.63;94222.31;4894658;29;20747;-78
2021/12/05 06:03:19;;;;;;;65.47;36.30;;;;;;;6.26;98.46;94215.91;4894657;29;20472;-78
2021/12/05 06:04:49;;;;;;;77.40;37.77;;;;;;;6.28;98.11;94217.44;4894329;29;20520;-78
2021/12/05 06:07:16;;;;;;;71.60;36.80;;;;;;;6.19;97.46;94224.22;4894591;29;20448;-78
2021/12/05 06:09:42;;;;;;;65.97;35.03;;;;;;;6.24;97.58;94226.47;4904648;29;20896;-78
2021/12/05 06:12:11;;;;;;;66.37;35.30;;;;;;;6.28;97.35;94217.44;4932403;29;20489;-78
2021/12/05 06:14:38;;;;;;;61.23;33.33;;;;;;;6.35;98.21;94229.03;4977753;28;20534;-78
2021/12/05 06:17:05;;;;;;;51.00;32.07;;;;;;;6.44;98.18;94227.50;5009989;28;20487;-78
2021/12/05 06:19:32;;;;;;;52.13;33.10;;;;;;;6.50;97.13;94237.44;5009857;28;20490;-78
2021/12/05 06:21:59;;;;;;;53.23;33.07;;;;;;;6.53;96.59;94231.97;4963250;28;20443;-78
2021/12/05 06:24:26;;;;;;;57.30;32.87;;;;;;;6.60;96.71;94243.56;5053873;28;20448;-78
2021/12/05 06:26:54;;;;;;;52.43;32.80;;;;;;;6.64;96.48;94250.19;5076164;28;20456;-78
2021/12/05 06:29:23;;;;;;;57.67;34.40;;;;;;;6.69;96.73;94252.44;5076167;28;20459;-78
2021/12/05 06:32:04;;;;;;;61.20;39.20;;;;;;;6.73;96.40;94265.13;5076101;28;20451;-78
2021/12/05 06:37:45;;;;;;;64.30;34.50;;;;;;;6.67;95.45;94276.03;5075816;28;20443;-78
2021/12/05 06:43:02;;;;;;;70.13;40.23;;;;;;;6.60;96.56;94284.44;5053178;28;20953;-78
2021/12/05 06:48:14;;;;;;;62.63;32.47;;;;;;;6.56;97.84;94276.03;5053350;28;20499;-78
2021/12/05 06:50:41;;;;;;;77.50;39.30;;;;;;;6.58;98.48;94291.56;5053244;28;20484;-78
2021/12/05 06:53:08;;;;;;;54.70;29.40;;;;;;;6.60;97.70;94311.34;5052910;28;20437;-78
2021/12/05 06:55:35;;;;;;;47.30;26.57;;;;;;;6.57;97.85;94326.38;5052840;28;20447;-78
2021/12/05 06:58:02;;;;;;;37.53;22.97;;;;;;;6.51;98.40;94325.94;5020001;28;20446;-78
2021/12/05 07:00:31;;;;;;;46.40;24.10;;;;;;;6.49;98.86;94327.00;5052725;28;20521;-78
2021/12/05 07:02:59;;;;;;;50.37;25.00;;;;;;;6.50;98.84;94326.88;5019523;28;20433;-78
2021/12/05 07:08:16;;;;;;;39.10;22.00;;;;;;;6.53;100.00;94318.81;5052705;28;20958;-78
2021/12/05 07:10:56;;;;;;;36.93;19.90;;;;;;;6.56;99.77;94320.34;5052662;28;20524;-78
2021/12/05 07:16:20;;;;;;;47.37;25.27;;;;;;;6.55;100.00;94308.25;5052786;28;20574;-78
2021/12/05 07:19:12;;;;;;;50.87;27.77;;;;;;;6.64;100.00;94307.53;5052545;28;20475;-78
2021/12/05 07:21:45;;;;;;;51.07;26.37;;;;;;;6.75;100.00;94307.53;5075398;28;20446;-78
2021/12/05 07:24:24;;;;;;;45.70;28.00;;;;;;;6.84;99.76;94314.63;5074869;28;20443;-78
2021/12/05 07:40:40;;;;;;;61.90;30.30;;;;;;;6.96;98.80;94301.56;5032258;28;20582;-77
2021/12/05 07:43:11;;;;;;;55.40;30.23;;;;;;;6.96;99.08;94314.63;5032051;28;21019;-77
2021/12/05 07:45:46;;;;;;;51.27;31.47;;;;;;;7.02;98.72;94304.50;5032068;28;20451;-78
2021/12/05 07:48:19;;;;;;;51.00;29.70;;;;;;;7.06;98.53;94297.25;5032114;28;20443;-77
2021/12/05 07:50:54;;;;;;;48.50;27.60;;;;;;;7.15;98.81;94297.34;4968383;28;20431;-77
2021/12/05 07:53:26;;;;;;;54.63;26.70;;;;;;;7.16;98.50;94287.72;5032014;28;20450;-78
2021/12/05 07:55:56;;;;;;;59.10;28.50;;;;;;;7.21;98.49;94282.97;5031982;28;20443;-78
2021/12/05 08:15:11;;;;;;;47.83;25.10;;;;;;;7.80;97.07;94287.66;5026712;28;20949;-78
2021/12/05 08:17:39;;;;;;;47.60;27.43;;;;;;;7.81;96.24;94289.34;5026891;28;20448;-78
2021/12/05 08:20:10;;;;;;;53.90;27.37;;;;;;;7.89;95.17;94288.69;5027149;28;20650;-77
2021/12/05 08:22:37;;;;;;;52.87;28.90;;;;;;;7.86;95.13;94304.63;5026670;28;20449;-79
2021/12/05 08:25:10;;;;;;;54.67;28.80;;;;;;;7.92;95.63;94293.66;4977894;28;20448;-79
2021/12/05 08:27:40;;;;;;;47.70;25.20;;;;;;;8.00;95.33;94304.28;5026930;28;20555;-79
2021/12/05 08:30:11;;;;;;;55.00;28.30;;;;;;;8.06;94.36;94307.19;5026538;28;20561;-79
2021/12/05 08:32:54;;;;;;;57.77;30.10;;;;;;;8.11;94.27;94306.00;5026685;28;20446;-79
2021/12/05 08:35:41;;;;;;;50.70;27.83;;;;;;;8.13;94.30;94310.13;5026343;28;20453;-78
2021/12/05 08:41:26;;;;;;;46.70;24.80;;;;;;;8.07;93.35;94308.84;5024344;28;20455;-78
2021/12/05 09:29:12;;;;;;;23.40;17.70;;;;;;;8.58;91.10;94232.19;5046147;28;20436;-79
2021/12/05 10:08:06;;;;;;;22.20;14.10;;;;;;;9.70;86.01;94173.19;4953984;29;20492;-79
2021/12/05 10:10:42;;;;;;;19.00;13.10;;;;;;;9.80;85.88;94162.66;4954088;29;20804;-79
2021/12/05 10:13:17;;;;;;;21.10;13.87;;;;;;;9.81;84.11;94157.28;4954070;29;20964;-79
2021/12/05 10:15:56;;;;;;;17.60;12.60;;;;;;;9.70;83.54;94160.09;4953746;28;20983;-78
2021/12/05 10:35:38;;;;;;;28.53;15.33;;;;;;;10.04;83.31;94156.91;5074109;28;20513;-79
2021/12/05 10:38:12;;;;;;;30.57;15.27;;;;;;;10.10;82.66;94153.72;5074196;28;20440;-78
2021/12/05 10:40:42;;;;;;;22.07;13.43;;;;;;;10.13;82.19;94146.41;5073961;28;20865;-79
2021/12/05 10:43:14;;;;;;;23.83;12.93;;;;;;;10.19;82.35;94155.50;5074293;28;20441;-78
2021/12/05 10:45:45;;;;;;;18.27;12.67;;;;;;;10.18;82.38;94146.78;5073814;28;20468;-79
2021/12/05 10:48:20;;;;;;;19.37;11.30;;;;;;;10.22;81.31;94135.06;5073764;28;20931;-79
2021/12/05 10:50:49;;;;;;;15.53;10.10;;;;;;;10.24;80.80;94125.25;5073935;28;20931;-79
2021/12/05 10:53:41;;;;;;;19.37;11.73;;;;;;;10.29;81.45;94119.56;5073739;28;20444;-78
2021/12/05 10:56:15;;;;;;;21.87;10.73;;;;;;;10.29;81.18;94119.56;5073581;28;20483;-79
2021/12/05 10:58:54;;;;;;;20.70;12.47;;;;;;;10.32;81.16;94116.66;5073798;28;20443;-79
2021/12/05 11:01:31;;;;;;;17.27;10.17;;;;;;;10.32;80.78;94116.66;5073574;28;20453;-79
2021/12/05 11:04:01;;;;;;;16.03;10.40;;;;;;;10.40;80.79;94114.09;5038147;28;20443;-78
2021/12/05 11:06:34;;;;;;;19.67;11.90;;;;;;;10.45;80.64;94103.19;5073452;28;20452;-79
2021/12/05 11:09:05;;;;;;;21.40;12.37;;;;;;;10.53;80.17;94098.84;5072327;28;20518;-79
2021/12/05 11:11:32;;;;;;;20.20;12.43;;;;;;;10.59;78.66;94099.22;5073281;28;20456;-78
2021/12/05 11:14:03;;;;;;;15.53;11.53;;;;;;;10.63;79.43;94105.81;5073402;28;20452;-79
2021/12/05 11:16:52;;;;;;;18.30;11.90;;;;;;;10.58;79.25;94095.78;5073389;28;20484;-79
2021/12/05 11:19:23;;;;;;;14.80;11.40;;;;;;;10.59;78.13;94092.19;5073582;28;20449;-78
2021/12/05 11:21:57;;;;;;;15.10;10.93;;;;;;;10.63;79.09;94083.03;5073094;28;20446;-78
2021/12/05 11:24:29;;;;;;;16.63;11.33;;;;;;;10.61;78.33;94071.03;5073193;28;20441;-79
2021/12/05 11:27:07;;;;;;;21.00;13.50;;;;;;;10.62;79.18;94070.88;5072911;28;20939;-78
2021/12/05 11:29:44;;;;;;;20.67;11.90;;;;;;;10.58;78.12;94061.66;5054691;28;20432;-79
2021/12/05 11:32:13;;;;;;;20.87;13.07;;;;;;;10.61;78.33;94063.16;5073192;28;20440;-79
2021/12/05 11:34:40;;;;;;;15.40;11.80;;;;;;;10.68;78.23;94064.19;5072610;28;20447;-79
2021/12/05 11:37:07;;;;;;;16.73;11.87;;;;;;;10.73;78.82;94064.59;5072502;28;20824;-79
2021/12/05 11:39:34;;;;;;;18.00;12.60;;;;;;;10.76;79.07;94056.41;5073192;28;20455;-78
2021/12/05 11:42:01;;;;;;;23.43;13.50;;;;;;;10.85;78.81;94052.88;5072787;28;20860;-78
2021/12/05 11:44:28;;;;;;;22.40;11.80;;;;;;;10.90;79.05;94039.28;5072709;28;20951;-79
2021/12/05 11:46:57;;;;;;;20.20;12.70;;;;;;;10.98;79.36;94037.53;5072592;28;20567;-79
2021/12/05 11:49:25;;;;;;;20.30;13.63;;;;;;;11.08;78.23;94035.66;5072513;28;20440;-79
2021/12/05 11:51:56;;;;;;;19.80;12.20;;;;;;;11.16;78.17;94037.50;5072631;28;20445;-79
2021/12/05 11:54:25;;;;;;;21.40;13.13;;;;;;;11.25;77.85;94020.81;5072664;28;20449;-78
2021/12/05 11:56:55;;;;;;;17.50;13.00;;;;;;;11.21;76.53;94026.53;5072375;28;20502;-79
2021/12/05 11:59:26;;;;;;;20.70;13.07;;;;;;;11.28;77.06;94024.97;5072483;28;20455;-79
2021/12/05 12:02:01;;;;;;;21.07;13.33;;;;;;;11.04;75.70;94018.56;5036972;28;20445;-79
2021/12/05 12:04:43;;;;;;;25.10;12.13;;;;;;;10.96;76.79;94010.63;5072503;28;20981;-79
2021/12/05 12:07:22;;;;;;;19.57;13.93;;;;;;;10.79;75.80;94020.19;5072354;28;20824;-79
2021/12/05 12:09:52;;;;;;;19.87;14.07;;;;;;;10.99;76.59;94020.84;5072230;28;20440;-79
2021/12/05 12:12:19;;;;;;;28.70;14.80;;;;;;;10.93;76.76;94020.63;5072172;28;20449;-79
2021/12/05 12:14:47;;;;;;;23.33;16.60;;;;;;;10.86;77.52;94010.72;5037166;28;20448;-79
2021/12/05 12:17:16;;;;;;;28.20;17.00;;;;;;;11.07;77.57;94013.00;5072346;28;20480;-79
2021/12/05 12:19:48;;;;;;;23.40;15.07;;;;;;;11.09;77.97;94012.84;5072241;28;20440;-79
2021/12/05 12:22:19;;;;;;;27.70;17.47;;;;;;;11.14;77.72;94002.72;5072168;28;20476;-79
2021/12/05 12:24:49;;;;;;;22.90;15.97;;;;;;;11.11;76.52;94009.09;5072211;28;20884;-79
2021/12/05 12:27:17;;;;;;;26.67;16.60;;;;;;;11.14;77.45;94003.53;5072374;28;20445;-79
2021/12/05 12:29:45;;;;;;;25.00;14.97;;;;;;;11.11;77.57;93992.53;5072420;28;20535;-78
2021/12/05 12:32:15;;;;;;;23.17;14.37;;;;;;;11.12;77.17;93994.16;5072066;28;20487;-79
2021/12/05 12:34:45;;;;;;;28.70;15.97;;;;;;;11.16;77.68;93995.50;5072097;28;20449;-79
2021/12/05 12:37:14;;;;;;;18.00;13.40;;;;;;;10.94;77.19;93990.75;5071909;28;20982;-79
2021/12/05 12:39:44;;;;;;;16.67;12.23;;;;;;;11.02;77.37;93993.47;5072112;28;20467;-79
2021/12/05 12:42:17;;;;;;;25.50;12.10;;;;;;;11.06;78.19;93990.38;5072320;28;20477;-79
2021/12/05 12:45:15;;;;;;;24.00;13.30;;;;;;;11.12;78.76;93988.91;5072016;28;20509;-78
2021/12/05 12:47:44;;;;;;;19.37;11.57;;;;;;;11.07;77.59;93997.25;5029676;28;20538;-79
2021/12/05 12:50:35;;;;;;;22.00;12.53;;;;;;;10.96;78.34;93992.25;5029835;28;20442;-79
2021/12/05 12:53:12;;;;;;;21.20;13.43;;;;;;;10.98;78.06;93978.97;5029424;28;20794;-79
2021/12/05 12:55:43;;;;;;;18.00;13.17;;;;;;;10.88;78.67;93973.84;5029658;28;20449;-79
2021/12/05 12:58:11;;;;;;;15.63;11.40;;;;;;;10.99;78.28;93980.66;5029506;28;20967;-79
2021/12/05 13:00:43;;;;;;;18.73;12.97;;;;;;;11.02;79.65;93978.53;5029586;28;20541;-79
2021/12/05 13:03:27;;;;;;;16.00;11.57;;;;;;;10.79;79.92;93972.16;5029515;28;20586;-79
2021/12/05 13:11:55;;;;;;;16.60;11.10;;;;;;;10.81;79.63;93970.19;4970884;28;20427;-79
2021/12/05 13:14:23;;;;;;;18.83;11.40;;;;;;;10.84;80.10;93968.06;4970329;28;20504;-79
2021/12/05 13:16:51;;;;;;;26.13;16.70;;;;;;;10.95;80.72;93979.28;4970828;28;20602;-79
2021/12/05 13:19:23;;;;;;;18.20;12.67;;;;;;;10.99;80.36;93970.97;4970685;28;20444;-79
2021/12/05 13:21:54;;;;;;;16.07;10.93;;;;;;;10.78;79.16;93965.25;4978290;28;20450;-79
2021/12/05 13:24:27;;;;;;;16.17;10.97;;;;;;;10.89;79.98;93964.97;5029299;28;20449;-79
2021/12/05 13:27:01;;;;;;;15.30;9.17;;;;;;;10.68;80.98;93964.50;5029311;28;20557;-79
2021/12/05 13:29:30;;;;;;;15.30;9.53;;;;;;;10.79;80.65;93959.03;5029246;28;20448;-79
2021/12/05 13:32:06;;;;;;;16.50;11.27;;;;;;;10.71;81.57;93958.97;5030072;28;20443;-79
2021/12/05 13:34:49;;;;;;;15.67;12.47;;;;;;;10.76;80.86;93967.22;5033006;28;20446;-79
2021/12/05 13:37:30;;;;;;;18.27;14.40;;;;;;;10.65;81.58;93965.63;4999797;28;20922;-79
2021/12/05 13:40:07;;;;;;;20.73;14.17;;;;;;;10.56;83.62;93956.06;5032778;28;20448;-79
2021/12/05 13:42:45;;;;;;;21.10;14.63;;;;;;;10.61;82.70;93958.22;5000724;28;20792;-79
2021/12/05 13:45:29;;;;;;;17.23;12.20;;;;;;;10.55;82.70;93950.00;5046313;28;20480;-78
2021/12/05 13:48:25;;;;;;;16.93;12.20;;;;;;;10.41;83.79;93975.97;5075096;28;20470;-79
2021/12/05 13:50:56;;;;;;;15.93;12.10;;;;;;;10.39;83.38;93964.78;5075231;28;20530;-79
2021/12/05 13:53:33;;;;;;;16.17;12.13;;;;;;;10.39;83.62;93967.41;5074755;28;20455;-79
2021/12/05 13:56:21;;;;;;;18.30;13.30;;;;;;;10.31;83.51;93981.28;5074807;28;20475;-79
2021/12/05 13:58:51;;;;;;;21.10;13.83;;;;;;;10.14;82.83;93972.44;5052374;28;20584;-79
2021/12/05 14:01:28;;;;;;;20.40;14.13;;;;;;;10.12;83.66;93977.00;5052497;28;20516;-79
2021/12/05 14:04:08;;;;;;;28.20;16.53;;;;;;;10.12;83.20;93968.28;5052544;28;20762;-78
2021/12/05 14:06:40;;;;;;;25.20;17.50;;;;;;;10.16;83.05;93983.59;5052090;28;20461;-79
2021/12/05 14:09:15;;;;;;;39.67;23.80;;;;;;;10.19;83.77;93974.59;5052133;28;20543;-79
2021/12/05 14:11:55;;;;;;;28.50;21.43;;;;;;;10.10;84.14;93978.09;5052433;28;20456;-79
2021/12/05 14:14:24;;;;;;;27.30;18.87;;;;;;;10.11;82.95;93971.88;5018910;28;20948;-79
2021/12/05 14:16:54;;;;;;;42.13;24.60;;;;;;;10.18;82.72;93962.47;5051861;28;20504;-79
2021/12/05 14:19:23;;;;;;;37.03;26.07;;;;;;;10.08;84.02;93956.44;5052227;28;20580;-78
2021/12/05 14:21:53;;;;;;;28.30;18.70;;;;;;;9.97;84.09;93943.59;5052011;28;20452;-79
2021/12/05 14:24:24;;;;;;;50.67;27.80;;;;;;;9.61;86.08;93952.25;5051970;28;20495;-79
2021/12/05 14:26:52;;;;;;;39.70;24.10;;;;;;;9.83;85.29;93940.53;5051702;28;21062;-79
2021/12/05 14:29:21;;;;;;;29.50;20.47;;;;;;;9.90;84.79;93944.19;5018401;28;20963;-79
2021/12/05 14:31:52;;;;;;;31.10;18.27;;;;;;;9.94;85.07;93952.56;5051923;28;20857;-79
2021/12/05 14:34:19;;;;;;;37.97;21.47;;;;;;;9.97;84.87;93954.06;5051597;28;20441;-79
2021/12/05 14:36:49;;;;;;;47.77;30.63;;;;;;;9.97;84.72;93949.66;5069547;28;20492;-79
2021/12/05 14:39:23;;;;;;;72.43;45.50;;;;;;;10.00;84.96;93948.53;5074319;28;20452;-79
2021/12/05 14:41:54;;;;;;;87.93;50.70;;;;;;;9.99;85.74;93955.56;5074237;28;20440;-79
2021/12/05 14:44:22;;;;;;;85.50;48.50;;;;;;;9.94;85.33;93956.00;5074356;28;20560;-79
2021/12/05 14:47:01;;;;;;;82.20;47.70;;;;;;;9.87;85.72;93941.88;5074179;28;20478;-79
2021/12/05 14:49:32;;;;;;;72.37;44.63;;;;;;;9.71;86.17;93940.88;5055190;28;20446;-79
2021/12/05 14:52:01;;;;;;;64.93;40.83;;;;;;;9.69;86.64;93941.00;5074055;28;20451;-79
2021/12/05 14:54:35;;;;;;;64.73;38.03;;;;;;;9.65;86.43;93955.38;5073905;28;20969;-79
2021/12/05 14:57:11;;;;;;;73.77;43.47;;;;;;;9.62;86.78;93960.91;5073476;28;20571;-79
2021/12/05 14:59:39;;;;;;;95.00;51.77;;;;;;;9.58;86.83;93957.78;5074071;28;20451;-79
2021/12/05 15:02:06;;;;;;;94.63;54.57;;;;;;;9.57;86.87;93957.91;5073940;28;20452;-79
2021/12/05 15:04:37;;;;;;;94.10;51.17;;;;;;;9.55;87.08;93979.03;5073633;28;20445;-79
2021/12/05 15:07:05;;;;;;;66.80;40.20;;;;;;;9.48;87.76;93984.97;5073445;28;20453;-79
2021/12/05 15:09:37;;;;;;;43.87;28.90;;;;;;;9.45;87.61;93974.78;5073155;28;20447;-79
2021/12/05 15:12:09;;;;;;;66.67;40.93;;;;;;;9.39;87.35;93970.13;5073650;28;20454;-79
2021/12/05 15:14:39;;;;;;;115.67;56.20;;;;;;;9.28;88.03;93972.00;5055134;28;20522;-79
2021/12/05 15:17:10;;;;;;;129.23;56.67;;;;;;;9.08;87.81;93965.19;5073072;28;20483;-79
2021/12/05 15:19:40;;;;;;;113.20;51.90;;;;;;;9.03;88.48;93959.56;5073479;28;20453;-79
2021/12/05 15:22:08;;;;;;;206.00;84.73;;;;;;;8.92;88.76;93965.78;5073793;28;20446;-79
2021/12/05 15:24:36;;;;;;;139.43;62.77;;;;;;;8.90;88.69;93969.50;5073013;28;20534;-79
2021/12/05 15:27:11;;;;;;;95.57;52.90;;;;;;;8.88;89.37;93987.13;5073173;28;20450;-78
2021/12/05 15:29:38;;;;;;;80.97;44.47;;;;;;;8.85;89.04;93984.81;5072885;28;20500;-79
2021/12/05 15:32:06;;;;;;;60.43;35.50;;;;;;;8.81;88.75;93984.25;5072931;28;20438;-79
2021/12/05 15:34:36;;;;;;;63.27;36.43;;;;;;;8.69;88.80;93967.94;5072998;28;20450;-79
2021/12/05 15:37:10;;;;;;;97.23;54.97;;;;;;;8.61;89.27;93965.16;5072659;28;20494;-79
2021/12/05 15:39:42;;;;;;;91.50;51.47;;;;;;;8.59;89.28;93981.97;5072836;28;20919;-79
2021/12/05 15:42:19;;;;;;;74.67;45.37;;;;;;;8.51;89.77;93980.06;5072762;28;20447;-79
2021/12/05 15:44:47;;;;;;;74.13;44.97;;;;;;;8.46;89.56;93974.44;5072771;28;20807;-79
2021/12/05 15:47:18;;;;;;;72.57;42.87;;;;;;;8.46;89.62;93994.53;5072513;28;20477;-79
2021/12/05 15:49:53;;;;;;;61.37;38.20;;;;;;;8.44;89.97;93997.28;5073011;28;20450;-79
2021/12/05 15:52:24;;;;;;;50.13;33.80;;;;;;;8.43;90.20;93987.78;5072502;28;20807;-79
2021/12/05 15:54:53;;;;;;;46.23;29.53;;;;;;;8.43;89.75;93998.25;5072190;28;20441;-79
2021/12/05 15:57:29;;;;;;;48.93;28.60;;;;;;;8.38;89.62;94000.41;5072487;28;20494;-79
2021/12/05 15:59:56;;;;;;;51.97;32.93;;;;;;;8.35;89.69;94016.38;5072698;28;20445;-79
2021/12/05 16:02:24;;;;;;;41.03;28.27;;;;;;;8.32;89.92;94007.00;5072680;28;20453;-79
2021/12/05 16:04:51;;;;;;;41.13;26.13;;;;;;;8.26;90.27;94006.72;5072517;28;20943;-79
2021/12/05 16:07:19;;;;;;;43.80;27.90;;;;;;;8.23;91.41;94020.09;5072502;28;20929;-79
2021/12/05 16:09:47;;;;;;;67.00;37.70;;;;;;;8.15;91.41;94009.50;5072370;28;20446;-79